sensor_id;sensor_type;location;lat;lon;timestamp;pressure;altitude;pressure_sealevel;temperature;humidity
48563;BME280;34981;49.104;11.396;2022-09-27T00:00:44;96478.66;;;9.46;95.59
48563;BME280;34981;49.104;11.396;2022-09-27T00:03:12;96482.38;;;9.45;95.65
48563;BME280;34981;49.104;11.396;2022-09-27T00:05:39;96480.75;;;9.44;95.70
48563;BME280;34981;49.104;11.396;2022-09-27T00:08:06;96479.13;;;9.43;95.77
48563;BME280;34981;49.104;11.396;2022-09-27T00:10:33;96496.03;;;9.43;95.84
48563;BME280;34981;49.104;11.396;2022-09-27T00:13:01;96501.94;;;9.40;95.88
48563;BME280;34981;49.104;11.396;2022-09-27T00:15:28;96496.81;;;9.38;95.93
48563;BME280;34981;49.104;11.396;2022-09-27T00:17:55;96507.53;;;9.38;96.00
48563;BME280;34981;49.104;11.396;2022-09-27T00:20:22;96514.53;;;9.40;96.06
48563;BME280;34981;49.104;11.396;2022-09-27T00:22:49;96515.09;;;9.42;96.11
48563;BME280;34981;49.104;11.396;2022-09-27T00:25:16;96523.16;;;9.42;96.17
48563;BME280;34981;49.104;11.396;2022-09-27T00:27:44;96525.84;;;9.42;96.22
48563;BME280;34981;49.104;11.396;2022-09-27T00:30:11;96520.47;;;9.42;96.27
48563;BME280;34981;49.104;11.396;2022-09-27T00:32:38;96528.75;;;9.40;96.29
48563;BME280;34981;49.104;11.396;2022-09-27T00:35:06;96524.13;;;9.35;96.35
48563;BME280;34981;49.104;11.396;2022-09-27T00:37:33;96527.88;;;9.34;96.37
48563;BME280;34981;49.104;11.396;2022-09-27T00:40:00;96527.31;;;9.32;96.43
48563;BME280;34981;49.104;11.396;2022-09-27T00:42:27;96529.41;;;9.30;96.47
48563;BME280;34981;49.104;11.396;2022-09-27T00:45:02;96527.78;;;9.29;96.54
48563;BME280;34981;49.104;11.396;2022-09-27T00:47:39;96532.34;;;9.29;96.58
48563;BME280;34981;49.104;11.396;2022-09-27T00:55:48;96543.06;;;9.29;96.72
48563;BME280;34981;49.104;11.396;2022-09-27T00:58:12;96543.34;;;9.27;96.78
48563;BME280;34981;49.104;11.396;2022-09-27T01:00:43;96547.91;;;9.27;96.79
48563;BME280;34981;49.104;11.396;2022-09-27T01:03:11;96554.31;;;9.26;96.83
48563;BME280;34981;49.104;11.396;2022-09-27T01:05:41;96560.50;;;9.26;96.87
48563;BME280;34981;49.104;11.396;2022-09-27T01:08:08;96557.81;;;9.26;96.88
48563;BME280;34981;49.104;11.396;2022-09-27T01:10:38;96565.03;;;9.26;96.91
48563;BME280;34981;49.104;11.396;2022-09-27T01:13:17;96560.50;;;9.26;96.94
48563;BME280;34981;49.104;11.396;2022-09-27T01:15:57;96567.50;;;9.27;96.99
48563;BME280;34981;49.104;11.396;2022-09-27T01:18:33;96566.09;;;9.25;97.00
48563;BME280;34981;49.104;11.396;2022-09-27T01:29:43;96586.69;;;9.19;97.11
48563;BME280;34981;49.104;11.396;2022-09-27T01:34:53;96585.75;;;9.14;97.17
48563;BME280;34981;49.104;11.396;2022-09-27T01:40:15;96586.03;;;9.12;97.26
48563;BME280;34981;49.104;11.396;2022-09-27T01:43:07;96587.31;;;9.10;97.32
48563;BME280;34981;49.104;11.396;2022-09-27T01:45:44;96594.31;;;9.11;97.34
48563;BME280;34981;49.104;11.396;2022-09-27T01:48:32;96588.13;;;9.10;97.38
48563;BME280;34981;49.104;11.396;2022-09-27T01:53:38;96603.41;;;9.10;97.42
48563;BME280;34981;49.104;11.396;2022-09-27T01:56:33;96598.88;;;9.10;97.45
48563;BME280;34981;49.104;11.396;2022-09-27T01:59:18;96599.69;;;9.11;97.47
48563;BME280;34981;49.104;11.396;2022-09-27T02:01:54;96599.91;;;9.09;97.48
48563;BME280;34981;49.104;11.396;2022-09-27T02:04:45;96601.56;;;9.10;97.52
48563;BME280;34981;49.104;11.396;2022-09-27T02:07:21;96610.66;;;9.09;97.52
48563;BME280;34981;49.104;11.396;2022-09-27T02:09:53;96609.84;;;9.09;97.54
48563;BME280;34981;49.104;11.396;2022-09-27T02:12:30;96617.88;;;9.09;97.58
48563;BME280;34981;49.104;11.396;2022-09-27T02:14:58;96620.81;;;9.07;97.60
48563;BME280;34981;49.104;11.396;2022-09-27T02:25:22;96635.25;;;9.06;97.67
48563;BME280;34981;49.104;11.396;2022-09-27T02:27:58;96628.28;;;9.05;97.69
48563;BME280;34981;49.104;11.396;2022-09-27T02:30:31;96632.28;;;9.03;97.72
48563;BME280;34981;49.104;11.396;2022-09-27T02:33:11;96634.59;;;8.99;97.72
48563;BME280;34981;49.104;11.396;2022-09-27T02:35:38;96638.38;;;8.98;97.75
48563;BME280;34981;49.104;11.396;2022-09-27T02:38:05;96653.06;;;8.95;97.78
48563;BME280;34981;49.104;11.396;2022-09-27T02:40:34;96656.47;;;8.91;97.81
48563;BME280;34981;49.104;11.396;2022-09-27T02:43:03;96677.44;;;8.94;97.83
48563;BME280;34981;49.104;11.396;2022-09-27T02:45:53;96680.69;;;8.96;97.86
48563;BME280;34981;49.104;11.396;2022-09-27T02:48:40;96687.56;;;8.92;97.88
48563;BME280;34981;49.104;11.396;2022-09-27T02:54:06;96698.06;;;8.93;97.93
48563;BME280;34981;49.104;11.396;2022-09-27T02:57:17;96697.16;;;8.88;97.96
48563;BME280;34981;49.104;11.396;2022-09-27T03:00:08;96701.13;;;8.85;97.97
48563;BME280;34981;49.104;11.396;2022-09-27T03:03:07;96710.50;;;8.83;97.99
48563;BME280;34981;49.104;11.396;2022-09-27T03:06:09;96713.41;;;8.81;97.99
48563;BME280;34981;49.104;11.396;2022-09-27T03:08:35;96728.44;;;8.82;98.02
48563;BME280;34981;49.104;11.396;2022-09-27T03:11:02;96737.75;;;8.80;98.03
48563;BME280;34981;49.104;11.396;2022-09-27T03:13:30;96744.75;;;8.81;98.05
48563;BME280;34981;49.104;11.396;2022-09-27T03:15:58;96760.84;;;8.81;98.05
48563;BME280;34981;49.104;11.396;2022-09-27T03:18:46;96760.25;;;8.79;98.07
48563;BME280;34981;49.104;11.396;2022-09-27T03:21:32;96779.84;;;8.79;98.08
48563;BME280;34981;49.104;11.396;2022-09-27T03:23:59;96779.84;;;8.79;98.10
48563;BME280;34981;49.104;11.396;2022-09-27T03:26:27;96796.16;;;8.78;98.10
48563;BME280;34981;49.104;11.396;2022-09-27T03:28:54;96798.84;;;8.78;98.13
48563;BME280;34981;49.104;11.396;2022-09-27T03:31:22;96805.84;;;8.79;98.14
48563;BME280;34981;49.104;11.396;2022-09-27T03:34:12;96814.91;;;8.78;98.15
48563;BME280;34981;49.104;11.396;2022-09-27T03:36:39;96821.91;;;8.79;98.15
48563;BME280;34981;49.104;11.396;2022-09-27T03:39:06;96834.72;;;8.77;98.18
48563;BME280;34981;49.104;11.396;2022-09-27T03:41:33;96839.06;;;8.78;98.20
48563;BME280;34981;49.104;11.396;2022-09-27T03:44:00;96854.09;;;8.79;98.22
48563;BME280;34981;49.104;11.396;2022-09-27T03:46:28;96853.28;;;8.78;98.22
48563;BME280;34981;49.104;11.396;2022-09-27T03:48:55;96850.81;;;8.77;98.23
48563;BME280;34981;49.104;11.396;2022-09-27T03:51:22;96854.56;;;8.76;98.24
48563;BME280;34981;49.104;11.396;2022-09-27T03:53:49;96865.31;;;8.76;98.25
48563;BME280;34981;49.104;11.396;2022-09-27T03:56:17;96868.22;;;8.74;98.26
48563;BME280;34981;49.104;11.396;2022-09-27T03:58:44;96874.94;;;8.77;98.27
48563;BME280;34981;49.104;11.396;2022-09-27T04:01:12;96876.72;;;8.71;98.27
48563;BME280;34981;49.104;11.396;2022-09-27T04:03:41;96883.81;;;8.77;98.30
48563;BME280;34981;49.104;11.396;2022-09-27T04:06:29;96885.13;;;8.75;98.30
48563;BME280;34981;49.104;11.396;2022-09-27T04:08:56;96905.25;;;8.77;98.33
48563;BME280;34981;49.104;11.396;2022-09-27T04:11:32;96910.38;;;8.79;98.34
48563;BME280;34981;49.104;11.396;2022-09-27T04:13:59;96916.94;;;8.83;98.38
48563;BME280;34981;49.104;11.396;2022-09-27T04:16:30;96928.47;;;8.83;98.37
48563;BME280;34981;49.104;11.396;2022-09-27T04:19:17;96920.53;;;8.77;98.36
48563;BME280;34981;49.104;11.396;2022-09-27T04:21:47;96926.47;;;8.79;98.37
48563;BME280;34981;49.104;11.396;2022-09-27T04:24:16;96936.16;;;8.80;98.37
48563;BME280;34981;49.104;11.396;2022-09-27T04:27:03;96939.06;;;8.78;98.38
48563;BME280;34981;49.104;11.396;2022-09-27T04:29:30;96953.28;;;8.79;98.39
48563;BME280;34981;49.104;11.396;2022-09-27T04:32:03;96952.25;;;8.80;98.41
48563;BME280;34981;49.104;11.396;2022-09-27T04:34:56;96954.22;;;8.84;98.44
48563;BME280;34981;49.104;11.396;2022-09-27T04:37:50;96971.38;;;8.83;98.43
48563;BME280;34981;49.104;11.396;2022-09-27T04:40:17;96965.19;;;8.83;98.44
48563;BME280;34981;49.104;11.396;2022-09-27T04:42:46;96966.81;;;8.84;98.43
48563;BME280;34981;49.104;11.396;2022-09-27T04:45:13;96969.13;;;8.80;98.43
48563;BME280;34981;49.104;11.396;2022-09-27T04:47:45;96988.50;;;8.82;98.46
48563;BME280;34981;49.104;11.396;2022-09-27T04:50:12;96989.31;;;8.83;98.45
48563;BME280;34981;49.104;11.396;2022-09-27T04:52:54;96997.81;;;8.80;98.44
48563;BME280;34981;49.104;11.396;2022-09-27T04:55:21;96989.19;;;8.78;98.44
48563;BME280;34981;49.104;11.396;2022-09-27T04:57:48;96990.72;;;8.74;98.44
48563;BME280;34981;49.104;11.396;2022-09-27T05:00:15;96994.88;;;8.70;98.45
48563;BME280;34981;49.104;11.396;2022-09-27T05:02:47;97000.72;;;8.67;98.46
48563;BME280;34981;49.104;11.396;2022-09-27T05:05:40;97007.34;;;8.64;98.46
48563;BME280;34981;49.104;11.396;2022-09-27T05:08:07;97010.84;;;8.65;98.44
48563;BME280;34981;49.104;11.396;2022-09-27T05:10:54;97004.56;;;8.59;98.44
48563;BME280;34981;49.104;11.396;2022-09-27T05:13:21;97003.03;;;8.51;98.44
48563;BME280;34981;49.104;11.396;2022-09-27T05:15:48;96996.97;;;8.44;98.41
48563;BME280;34981;49.104;11.396;2022-09-27T05:18:37;96985.75;;;8.36;98.39
48563;BME280;34981;49.104;11.396;2022-09-27T05:21:23;96990.53;;;8.34;98.37
48563;BME280;34981;49.104;11.396;2022-09-27T05:23:50;96975.56;;;8.26;98.37
48563;BME280;34981;49.104;11.396;2022-09-27T05:26:17;96972.19;;;8.19;98.35
48563;BME280;34981;49.104;11.396;2022-09-27T05:28:44;96965.75;;;8.08;98.32
48563;BME280;34981;49.104;11.396;2022-09-27T05:31:13;96953.03;;;8.04;98.31
48563;BME280;34981;49.104;11.396;2022-09-27T05:33:41;96959.09;;;8.11;98.31
48563;BME280;34981;49.104;11.396;2022-09-27T05:36:30;96956.09;;;8.19;98.34
48563;BME280;34981;49.104;11.396;2022-09-27T05:38:58;96961.47;;;8.19;98.32
48563;BME280;34981;49.104;11.396;2022-09-27T05:41:25;96951.22;;;8.16;98.32
48563;BME280;34981;49.104;11.396;2022-09-27T05:43:53;96939.09;;;8.13;98.30
48563;BME280;34981;49.104;11.396;2022-09-27T05:46:20;96933.16;;;8.11;98.29
48563;BME280;34981;49.104;11.396;2022-09-27T05:48:47;96936.06;;;8.10;98.27
48563;BME280;34981;49.104;11.396;2022-09-27T05:51:14;96945.50;;;8.12;98.29
48563;BME280;34981;49.104;11.396;2022-09-27T05:53:42;96946.47;;;8.18;98.30
48563;BME280;34981;49.104;11.396;2022-09-27T05:56:17;96946.47;;;8.18;98.29
48563;BME280;34981;49.104;11.396;2022-09-27T05:59:02;96945.53;;;8.24;98.28
48563;BME280;34981;49.104;11.396;2022-09-27T06:01:44;96941.13;;;8.30;98.31
48563;BME280;34981;49.104;11.396;2022-09-27T06:04:43;96923.50;;;8.22;98.29
48563;BME280;34981;49.104;11.396;2022-09-27T06:07:31;96926.19;;;8.22;98.30
48563;BME280;34981;49.104;11.396;2022-09-27T06:09:59;96927.22;;;8.21;98.29
48563;BME280;34981;49.104;11.396;2022-09-27T06:12:26;96930.94;;;8.20;98.29
48563;BME280;34981;49.104;11.396;2022-09-27T06:14:53;96930.50;;;8.23;98.28
48563;BME280;34981;49.104;11.396;2022-09-27T06:17:33;96923.06;;;8.25;98.29
48563;BME280;34981;49.104;11.396;2022-09-27T06:20:02;96932.72;;;8.26;98.30
48563;BME280;34981;49.104;11.396;2022-09-27T06:22:30;96931.44;;;8.29;98.30
48563;BME280;34981;49.104;11.396;2022-09-27T06:24:59;96932.88;;;8.31;98.32
48563;BME280;34981;49.104;11.396;2022-09-27T06:27:30;96927.53;;;8.31;98.30
48563;BME280;34981;49.104;11.396;2022-09-27T06:30:10;96929.16;;;8.32;98.30
48563;BME280;34981;49.104;11.396;2022-09-27T06:32:54;96928.53;;;8.30;98.29
48563;BME280;34981;49.104;11.396;2022-09-27T06:35:48;96917.81;;;8.30;98.29
48563;BME280;34981;49.104;11.396;2022-09-27T06:38:17;96932.06;;;8.31;98.29
48563;BME280;34981;49.104;11.396;2022-09-27T06:41:05;96935.69;;;8.36;98.31
48563;BME280;34981;49.104;11.396;2022-09-27T06:43:50;96938.94;;;8.38;98.31
48563;BME280;34981;49.104;11.396;2022-09-27T06:46:38;96942.66;;;8.37;98.29
48563;BME280;34981;49.104;11.396;2022-09-27T06:49:28;96941.47;;;8.33;98.28
48563;BME280;34981;49.104;11.396;2022-09-27T06:51:57;96943.94;;;8.35;98.27
48563;BME280;34981;49.104;11.396;2022-09-27T06:54:24;96954.88;;;8.33;98.27
48563;BME280;34981;49.104;11.396;2022-09-27T06:56:52;96951.75;;;8.36;98.28
48563;BME280;34981;49.104;11.396;2022-09-27T06:59:19;96945.13;;;8.39;98.27
48563;BME280;34981;49.104;11.396;2022-09-27T07:02:23;96948.63;;;8.39;98.28
48563;BME280;34981;49.104;11.396;2022-09-27T07:05:16;96945.47;;;8.42;98.28
48563;BME280;34981;49.104;11.396;2022-09-27T07:08:00;96957.81;;;8.43;98.28
48563;BME280;34981;49.104;11.396;2022-09-27T07:10:28;96961.19;;;8.39;98.27
48563;BME280;34981;49.104;11.396;2022-09-27T07:12:56;96952.56;;;8.37;98.26
48563;BME280;34981;49.104;11.396;2022-09-27T07:15:28;96951.75;;;8.36;98.25
48563;BME280;34981;49.104;11.396;2022-09-27T07:17:56;96953.72;;;8.41;98.26
48563;BME280;34981;49.104;11.396;2022-09-27T07:20:26;96943.72;;;8.48;98.27
48563;BME280;34981;49.104;11.396;2022-09-27T07:22:53;96963.53;;;8.70;98.34
48563;BME280;34981;49.104;11.396;2022-09-27T07:25:20;96981.63;;;8.98;98.38
48563;BME280;34981;49.104;11.396;2022-09-27T07:27:48;96984.41;;;9.03;98.39
48563;BME280;34981;49.104;11.396;2022-09-27T07:30:16;96987.28;;;9.13;98.40
48563;BME280;34981;49.104;11.396;2022-09-27T07:32:43;96998.75;;;9.20;98.41
48563;BME280;34981;49.104;11.396;2022-09-27T07:35:11;96998.38;;;9.28;98.41
48563;BME280;34981;49.104;11.396;2022-09-27T07:37:41;96995.94;;;9.27;98.40
48563;BME280;34981;49.104;11.396;2022-09-27T07:40:10;96988.13;;;9.25;98.38
48563;BME280;34981;49.104;11.396;2022-09-27T07:42:37;96983.13;;;9.17;98.36
48563;BME280;34981;49.104;11.396;2022-09-27T07:45:05;96983.69;;;9.19;98.35
48563;BME280;34981;49.104;11.396;2022-09-27T07:48:04;96956.19;;;9.01;98.28
48563;BME280;34981;49.104;11.396;2022-09-27T07:50:58;96963.78;;;9.04;98.26
48563;BME280;34981;49.104;11.396;2022-09-27T07:53:47;96955.38;;;9.00;98.25
48563;BME280;34981;49.104;11.396;2022-09-27T07:56:46;96940.31;;;8.99;98.25
48563;BME280;34981;49.104;11.396;2022-09-27T07:59:15;96943.50;;;8.96;98.25
48563;BME280;34981;49.104;11.396;2022-09-27T08:01:42;96935.69;;;8.94;98.22
48563;BME280;34981;49.104;11.396;2022-09-27T08:04:09;96948.03;;;8.95;98.21
48563;BME280;34981;49.104;11.396;2022-09-27T08:06:36;96943.25;;;8.97;98.23
48563;BME280;34981;49.104;11.396;2022-09-27T08:09:07;96946.50;;;9.11;98.25
48563;BME280;34981;49.104;11.396;2022-09-27T08:11:37;96962.09;;;9.26;98.27
48563;BME280;34981;49.104;11.396;2022-09-27T08:14:04;96967.47;;;9.26;98.29
48563;BME280;34981;49.104;11.396;2022-09-27T08:16:33;96956.28;;;9.17;98.25
48563;BME280;34981;49.104;11.396;2022-09-27T08:19:18;96955.59;;;9.10;98.23
48563;BME280;34981;49.104;11.396;2022-09-27T08:21:56;96947.09;;;9.02;98.19
48563;BME280;34981;49.104;11.396;2022-09-27T08:24:30;96945.34;;;8.95;98.16
48563;BME280;34981;49.104;11.396;2022-09-27T08:27:03;96942.69;;;8.95;98.18
48563;BME280;34981;49.104;11.396;2022-09-27T08:29:49;96940.09;;;9.01;98.18
48563;BME280;34981;49.104;11.396;2022-09-27T08:32:16;96950.69;;;9.07;98.18
48563;BME280;34981;49.104;11.396;2022-09-27T08:34:49;96946.38;;;9.06;98.16
48563;BME280;34981;49.104;11.396;2022-09-27T08:37:16;96948.00;;;9.07;98.16
48563;BME280;34981;49.104;11.396;2022-09-27T08:39:43;96943.59;;;9.01;98.13
48563;BME280;34981;49.104;11.396;2022-09-27T08:45:02;96936.03;;;8.98;98.10
48563;BME280;34981;49.104;11.396;2022-09-27T08:47:44;96937.63;;;8.99;98.07
48563;BME280;34981;49.104;11.396;2022-09-27T08:50:34;96927.41;;;8.96;98.07
48563;BME280;34981;49.104;11.396;2022-09-27T08:55:42;96913.31;;;8.89;98.01
48563;BME280;34981;49.104;11.396;2022-09-27T09:00:52;96905.34;;;8.94;98.02
48563;BME280;34981;49.104;11.396;2022-09-27T09:03:26;96909.22;;;8.98;98.02
48563;BME280;34981;49.104;11.396;2022-09-27T09:06:17;96892.88;;;8.99;98.00
48563;BME280;34981;49.104;11.396;2022-09-27T09:16:44;96909.44;;;9.36;98.11
48563;BME280;34981;49.104;11.396;2022-09-27T09:32:58;96877.59;;;9.00;97.93
48563;BME280;34981;49.104;11.396;2022-09-27T09:35:39;96887.00;;;9.14;97.99
48563;BME280;34981;49.104;11.396;2022-09-27T09:38:10;96917.09;;;9.56;98.10
48563;BME280;34981;49.104;11.396;2022-09-27T09:40:40;96948.19;;;9.97;98.21
48563;BME280;34981;49.104;11.396;2022-09-27T09:43:13;96967.97;;;10.20;98.27
48563;BME280;34981;49.104;11.396;2022-09-27T09:45:45;96977.78;;;10.42;98.31
48563;BME280;34981;49.104;11.396;2022-09-27T09:48:23;96986.41;;;10.61;98.34
48563;BME280;34981;49.104;11.396;2022-09-27T09:50:55;96984.47;;;10.73;98.35
48563;BME280;34981;49.104;11.396;2022-09-27T09:56:03;96992.75;;;10.88;98.34
48563;BME280;34981;49.104;11.396;2022-09-27T10:01:41;96947.13;;;10.60;98.20
48563;BME280;34981;49.104;11.396;2022-09-27T10:04:21;96930.84;;;10.50;98.12
48563;BME280;34981;49.104;11.396;2022-09-27T10:06:51;96917.75;;;10.37;98.03
48563;BME280;34981;49.104;11.396;2022-09-27T10:09:26;96903.09;;;10.28;97.95
48563;BME280;34981;49.104;11.396;2022-09-27T10:12:28;96864.88;;;10.26;97.92
48563;BME280;34981;49.104;11.396;2022-09-27T10:14:56;96861.22;;;10.15;97.86
48563;BME280;34981;49.104;11.396;2022-09-27T10:17:26;96834.00;;;10.11;97.82
48563;BME280;34981;49.104;11.396;2022-09-27T10:19:55;96827.75;;;10.06;97.76
48563;BME280;34981;49.104;11.396;2022-09-27T10:22:28;96815.44;;;10.10;97.75
48563;BME280;34981;49.104;11.396;2022-09-27T10:25:05;96808.59;;;10.02;97.71
48563;BME280;34981;49.104;11.396;2022-09-27T10:27:45;96807.06;;;10.06;97.72
48563;BME280;34981;49.104;11.396;2022-09-27T10:30:27;96791.13;;;10.00;97.68
48563;BME280;34981;49.104;11.396;2022-09-27T10:32:57;96788.44;;;10.00;97.66
48563;BME280;34981;49.104;11.396;2022-09-27T10:35:43;96782.16;;;9.94;97.63
48563;BME280;34981;49.104;11.396;2022-09-27T10:38:37;96778.34;;;9.90;97.61
48563;BME280;34981;49.104;11.396;2022-09-27T10:41:31;96778.81;;;9.87;97.62
48563;BME280;34981;49.104;11.396;2022-09-27T10:46:44;96788.66;;;9.98;97.65
48563;BME280;34981;49.104;11.396;2022-09-27T10:52:02;96791.28;;;9.93;97.66
48563;BME280;34981;49.104;11.396;2022-09-27T10:54:32;96787.69;;;9.88;97.65
48563;BME280;34981;49.104;11.396;2022-09-27T11:00:04;96786.88;;;9.87;97.65
48563;BME280;34981;49.104;11.396;2022-09-27T11:02:34;96802.44;;;9.85;97.62
48563;BME280;34981;49.104;11.396;2022-09-27T11:10:21;96796.97;;;9.80;97.57
48563;BME280;34981;49.104;11.396;2022-09-27T11:15:52;96788.25;;;10.06;97.64
48563;BME280;34981;49.104;11.396;2022-09-27T11:23:54;96809.13;;;10.54;97.74
48563;BME280;34981;49.104;11.396;2022-09-27T11:26:38;96801.63;;;10.57;97.71
48563;BME280;34981;49.104;11.396;2022-09-27T11:32:09;96784.63;;;10.51;97.60
48563;BME280;34981;49.104;11.396;2022-09-27T11:37:11;96758.47;;;10.46;97.45
48563;BME280;34981;49.104;11.396;2022-09-27T11:39:48;96735.28;;;10.40;97.36
48563;BME280;34981;49.104;11.396;2022-09-27T11:44:51;96716.31;;;10.30;97.23
48563;BME280;34981;49.104;11.396;2022-09-27T11:47:54;96694.47;;;10.22;97.15
48563;BME280;34981;49.104;11.396;2022-09-27T12:01:21;96656.84;;;10.65;97.07
48563;BME280;34981;49.104;11.396;2022-09-27T12:03:53;96639.47;;;10.51;96.96
48563;BME280;34981;49.104;11.396;2022-09-27T12:06:47;96635.84;;;10.67;96.97
48563;BME280;34981;49.104;11.396;2022-09-27T12:09:19;96633.25;;;10.72;96.98
48563;BME280;34981;49.104;11.396;2022-09-27T12:11:52;96640.75;;;10.70;96.92
48563;BME280;34981;49.104;11.396;2022-09-27T12:14:23;96638.81;;;10.66;96.88
48563;BME280;34981;49.104;11.396;2022-09-27T12:16:54;96643.91;;;10.67;96.86
48563;BME280;34981;49.104;11.396;2022-09-27T12:19:32;96634.63;;;10.53;96.80
48563;BME280;34981;49.104;11.396;2022-09-27T12:22:15;96627.78;;;10.40;96.75
48563;BME280;34981;49.104;11.396;2022-09-27T12:25:05;96618.84;;;10.35;96.72
48563;BME280;34981;49.104;11.396;2022-09-27T12:27:45;96605.91;;;10.32;96.74
48563;BME280;34981;49.104;11.396;2022-09-27T12:30:18;96617.63;;;10.21;96.71
48563;BME280;34981;49.104;11.396;2022-09-27T12:32:55;96610.53;;;10.14;96.70
48563;BME280;34981;49.104;11.396;2022-09-27T12:35:27;96598.53;;;10.00;96.68
48563;BME280;34981;49.104;11.396;2022-09-27T12:42:55;96632.50;;;10.28;96.89
48563;BME280;34981;49.104;11.396;2022-09-27T12:45:47;96644.47;;;10.42;97.02
48563;BME280;34981;49.104;11.396;2022-09-27T12:56:22;96655.19;;;10.37;97.05
48563;BME280;34981;49.104;11.396;2022-09-27T13:01:30;96672.97;;;10.65;97.17
48563;BME280;34981;49.104;11.396;2022-09-27T13:11:58;96662.97;;;10.39;97.01
48563;BME280;34981;49.104;11.396;2022-09-27T13:14:31;96651.16;;;10.40;96.99
48563;BME280;34981;49.104;11.396;2022-09-27T13:17:00;96640.84;;;10.32;96.95
48563;BME280;34981;49.104;11.396;2022-09-27T13:22:02;96636.00;;;10.29;96.87
48563;BME280;34981;49.104;11.396;2022-09-27T13:24:53;96634.94;;;10.30;96.88
48563;BME280;34981;49.104;11.396;2022-09-27T13:27:50;96625.84;;;10.36;96.87
48563;BME280;34981;49.104;11.396;2022-09-27T13:36:44;96615.34;;;10.34;96.84
48563;BME280;34981;49.104;11.396;2022-09-27T13:44:30;96620.97;;;10.33;96.78
48563;BME280;34981;49.104;11.396;2022-09-27T13:47:04;96599.63;;;10.21;96.71
48563;BME280;34981;49.104;11.396;2022-09-27T13:49:42;96598.25;;;10.19;96.68
48563;BME280;34981;49.104;11.396;2022-09-27T13:52:34;96591.41;;;10.11;96.59
48563;BME280;34981;49.104;11.396;2022-09-27T13:57:59;96588.34;;;10.02;96.50
48563;BME280;34981;49.104;11.396;2022-09-27T14:00:37;96599.97;;;10.08;96.52
48563;BME280;34981;49.104;11.396;2022-09-27T14:08:13;96600.22;;;10.06;96.59
48563;BME280;34981;49.104;11.396;2022-09-27T14:10:43;96618.03;;;10.12;96.65
48563;BME280;34981;49.104;11.396;2022-09-27T14:13:10;96619.31;;;10.10;96.65
48563;BME280;34981;49.104;11.396;2022-09-27T14:15:51;96608.91;;;10.13;96.69
48563;BME280;34981;49.104;11.396;2022-09-27T14:18:20;96613.47;;;10.13;96.70
48563;BME280;34981;49.104;11.396;2022-09-27T14:20:50;96613.13;;;10.09;96.68
48563;BME280;34981;49.104;11.396;2022-09-27T14:23:38;96597.16;;;9.98;96.65
48563;BME280;34981;49.104;11.396;2022-09-27T14:26:17;96581.09;;;9.81;96.55
48563;BME280;34981;49.104;11.396;2022-09-27T14:28:47;96581.53;;;9.73;96.49
48563;BME280;34981;49.104;11.396;2022-09-27T14:31:28;96576.41;;;9.71;96.47
48563;BME280;34981;49.104;11.396;2022-09-27T14:34:14;96585.44;;;9.65;96.43
48563;BME280;34981;49.104;11.396;2022-09-27T14:36:46;96581.00;;;9.54;96.37
48563;BME280;34981;49.104;11.396;2022-09-27T14:39:43;96570.03;;;9.56;96.39
48563;BME280;34981;49.104;11.396;2022-09-27T14:42:26;96570.84;;;9.56;96.39
48563;BME280;34981;49.104;11.396;2022-09-27T14:44:55;96576.31;;;9.45;96.33
48563;BME280;34981;49.104;11.396;2022-09-27T14:47:26;96570.88;;;9.40;96.31
48563;BME280;34981;49.104;11.396;2022-09-27T14:49:55;96583.66;;;9.32;96.30
48563;BME280;34981;49.104;11.396;2022-09-27T14:52:27;96593.41;;;9.38;96.31
